Time;durP1;ratioP1;P1;durP2;ratioP2;P2;SDS_P1;SDS_P2;PMS_P1;PMS_P2;Temp;Humidity;BMP_temperature;BMP_pressure;BME280_temperature;BME280_humidity;BME280_pressure;Samples;Min_cycle;Max_cycle;Signal;HPM_P1;HPM_P2
2023/06/27 00:00:00;;;;;;;5.75;4.05;;;25.90;96.70;;;;;;5038028;28;20041;-71
2023/06/27 00:02:30;;;;;;;5.60;3.85;;;25.90;96.70;;;;;;5039922;28;20049;-70
2023/06/27 00:05:00;;;;;;;6.72;4.15;;;25.90;96.70;;;;;;5040391;28;20056;-70
2023/06/27 00:07:30;;;;;;;3.90;3.40;;;26.00;96.70;;;;;;5024055;28;20049;-71
2023/06/27 00:09:59;;;;;;;5.63;3.83;;;26.00;96.70;;;;;;5026929;28;20041;-71
2023/06/27 00:12:30;;;;;;;5.00;3.60;;;26.00;96.70;;;;;;5042714;28;20044;-70
2023/06/27 00:15:38;;;;;;;4.57;4.13;;;26.00;96.70;;;;;;5034304;28;20076;-71
2023/06/27 00:18:08;;;;;;;6.93;3.97;;;25.90;96.70;;;;;;5023689;28;20099;-71
2023/06/27 00:20:36;;;;;;;5.25;3.30;;;25.80;96.70;;;;;;5042273;28;20098;-70
2023/06/27 00:23:20;;;;;;;6.93;3.53;;;25.90;96.70;;;;;;5043478;28;20498;-70
2023/06/27 00:25:48;;;;;;;10.13;4.35;;;25.80;96.70;;;;;;5046394;28;20041;-70
2023/06/27 00:28:17;;;;;;;4.80;3.67;;;25.80;96.70;;;;;;5036928;28;20045;-70
2023/06/27 00:30:45;;;;;;;5.78;3.78;;;25.80;96.70;;;;;;5040948;28;20037;-71
2023/06/27 00:33:13;;;;;;;4.97;3.70;;;25.80;96.70;;;;;;5041905;28;20073;-70
2023/06/27 00:35:41;;;;;;;5.45;3.50;;;25.70;96.70;;;;;;5041188;28;20860;-70
2023/06/27 00:38:09;;;;;;;5.32;3.80;;;25.80;96.70;;;;;;5038712;28;20114;-71
2023/06/27 00:40:39;;;;;;;5.55;3.70;;;25.80;96.70;;;;;;5018894;28;20033;-70
2023/06/27 00:43:07;;;;;;;6.25;3.42;;;25.90;96.70;;;;;;5024630;28;20049;-70
2023/06/27 00:45:34;;;;;;;7.80;4.22;;;25.80;96.70;;;;;;5023853;28;20491;-69
2023/06/27 00:48:03;;;;;;;7.60;5.25;;;25.70;96.70;;;;;;5015544;28;20056;-70
2023/06/27 00:50:32;;;;;;;11.55;7.25;;;25.60;96.70;;;;;;5036471;28;20041;-70
2023/06/27 01:10:00;;;;;;;8.23;5.60;;;25.20;96.70;;;;;;5010417;28;20056;-70
2023/06/27 01:12:32;;;;;;;10.13;5.93;;;25.00;96.70;;;;;;5042059;28;20402;-70
2023/06/27 01:15:02;;;;;;;7.85;5.60;;;25.00;96.70;;;;;;5007088;28;20611;-70
2023/06/27 01:17:32;;;;;;;8.80;5.25;;;25.10;96.70;;;;;;5015971;28;20124;-70
2023/06/27 01:20:01;;;;;;;7.07;4.75;;;25.10;96.70;;;;;;5016510;28;20131;-70
2023/06/27 01:22:32;;;;;;;7.78;4.57;;;25.20;96.70;;;;;;5019447;28;20037;-70
2023/06/27 01:25:07;;;;;;;7.03;5.00;;;25.20;96.70;;;;;;5014897;28;20158;-70
2023/06/27 01:27:36;;;;;;;10.93;5.93;;;25.10;96.70;;;;;;5041287;28;20034;-70
2023/06/27 01:30:06;;;;;;;9.45;6.75;;;25.10;96.70;;;;;;5025584;28;20037;-70
2023/06/27 01:32:37;;;;;;;12.50;7.80;;;25.00;96.70;;;;;;5018397;28;20053;-72
2023/06/27 01:35:11;;;;;;;10.50;7.07;;;25.00;96.70;;;;;;5040519;28;20155;-72
2023/06/27 01:37:45;;;;;;;13.68;8.68;;;25.00;96.70;;;;;;5029362;28;20053;-72
2023/06/27 01:44:07;;;;;;;14.85;8.40;;;24.90;96.70;;;;;;5035014;28;20025;-72
2023/06/27 01:46:37;;;;;;;15.50;8.63;;;24.60;96.70;;;;;;5021894;28;20037;-72
2023/06/27 01:49:07;;;;;;;15.10;10.38;;;24.60;96.70;;;;;;5035338;28;20500;-71
2023/06/27 01:51:35;;;;;;;19.33;10.93;;;24.60;96.70;;;;;;5033259;28;20102;-70
2023/06/27 01:54:04;;;;;;;15.50;10.52;;;24.70;96.70;;;;;;5018725;28;20037;-71
2023/06/27 01:56:33;;;;;;;13.38;7.88;;;24.80;96.70;;;;;;5022527;28;20048;-71
2023/06/27 01:59:56;;;;;;;11.80;6.60;;;24.70;96.70;;;;;;5038953;28;20148;-71
2023/06/27 02:02:26;;;;;;;6.57;4.72;;;24.80;96.70;;;;;;5039907;28;20128;-70
2023/06/27 02:04:54;;;;;;;7.97;4.80;;;24.60;96.70;;;;;;5034195;28;20129;-70
2023/06/27 02:15:43;;;;;;;4.07;3.60;;;24.60;96.70;;;;;;5016300;28;20101;-71
2023/06/27 02:18:13;;;;;;;6.43;3.80;;;24.50;96.70;;;;;;5034312;28;20049;-70
2023/06/27 02:20:41;;;;;;;6.18;3.92;;;24.60;96.70;;;;;;5018528;28;20099;-70
2023/06/27 03:09:28;;;;;;;11.18;7.03;;;24.10;96.70;;;;;;5033941;28;20453;-70
2023/06/27 03:11:56;;;;;;;10.95;6.40;;;24.00;96.70;;;;;;5024497;28;20045;-71
2023/06/27 03:14:27;;;;;;;11.00;7.20;;;24.00;96.70;;;;;;5022055;28;20055;-70
2023/06/27 03:16:58;;;;;;;15.18;6.38;;;23.90;96.70;;;;;;5012718;28;20136;-71
2023/06/27 04:05:54;;;;;;;6.22;4.47;;;24.20;96.70;;;;;;5037256;28;20122;-71
2023/06/27 04:08:24;;;;;;;9.02;4.00;;;24.10;96.70;;;;;;5048229;28;20514;-71
2023/06/27 04:10:53;;;;;;;9.20;4.78;;;24.10;96.70;;;;;;5024995;28;20049;-71
2023/06/27 04:13:21;;;;;;;7.53;4.95;;;24.10;96.70;;;;;;5028518;28;20904;-71
2023/06/27 04:15:49;;;;;;;17.00;7.15;;;24.20;96.70;;;;;;5019934;28;20068;-71
2023/06/27 04:18:18;;;;;;;15.18;7.18;;;24.20;96.70;;;;;;4997557;28;20042;-70
2023/06/27 04:20:47;;;;;;;20.02;7.10;;;24.20;96.70;;;;;;4997138;28;20061;-71
2023/06/27 04:23:17;;;;;;;21.30;7.60;;;24.20;96.70;;;;;;4996229;28;20117;-71
2023/06/27 04:25:59;;;;;;;23.02;8.73;;;24.10;96.70;;;;;;4996791;28;20073;-71
2023/06/27 04:28:27;;;;;;;23.45;9.02;;;24.20;96.70;;;;;;4998390;28;20046;-71
2023/06/27 04:30:55;;;;;;;22.42;8.25;;;24.30;96.70;;;;;;5001231;28;20461;-71
2023/06/27 04:33:24;;;;;;;32.95;10.50;;;24.30;96.70;;;;;;4999112;28;20061;-71
2023/06/27 04:35:54;;;;;;;30.02;10.75;;;24.30;96.70;;;;;;4991026;28;20034;-70
2023/06/27 04:38:24;;;;;;;26.38;10.93;;;24.10;96.70;;;;;;4994378;28;20165;-71
2023/06/27 04:40:52;;;;;;;27.27;10.20;;;24.20;96.70;;;;;;4997268;28;20049;-71
2023/06/27 04:43:39;;;;;;;22.73;11.38;;;24.20;96.70;;;;;;5005530;28;20050;-71
2023/06/27 04:46:07;;;;;;;23.35;11.10;;;24.00;96.70;;;;;;5000140;28;20042;-71
2023/06/27 04:48:35;;;;;;;23.35;11.60;;;24.00;96.70;;;;;;4999286;28;20163;-71
2023/06/27 04:51:03;;;;;;;25.40;11.48;;;23.90;96.70;;;;;;5000085;28;20045;-70
2023/06/27 04:53:33;;;;;;;25.63;12.55;;;23.90;96.70;;;;;;4997892;28;20121;-71
2023/06/27 04:56:01;;;;;;;22.02;11.25;;;24.00;96.70;;;;;;4994482;28;20125;-70
2023/06/27 04:58:29;;;;;;;22.52;12.18;;;24.00;96.70;;;;;;4993030;28;20553;-71
2023/06/27 05:00:57;;;;;;;25.20;13.05;;;24.00;96.70;;;;;;4999367;28;20045;-70
2023/06/27 05:03:25;;;;;;;25.10;12.18;;;23.90;96.70;;;;;;4999536;28;20046;-70
2023/06/27 05:05:53;;;;;;;26.90;14.35;;;23.90;96.70;;;;;;4997587;28;20196;-71
2023/06/27 05:09:16;;;;;;;25.17;13.38;;;23.90;96.70;;;;;;4997793;28;20077;-71
2023/06/27 05:11:45;;;;;;;26.05;12.82;;;23.80;96.70;;;;;;5003657;28;20057;-71
2023/06/27 05:31:42;;;;;;;17.33;11.65;;;24.10;96.70;;;;;;5034690;28;20100;-71
2023/06/27 05:34:12;;;;;;;18.05;11.40;;;24.40;96.70;;;;;;5020186;28;20132;-71
2023/06/27 05:36:40;;;;;;;17.15;10.88;;;24.30;96.70;;;;;;5036033;28;20042;-71
2023/06/27 05:39:08;;;;;;;16.17;9.38;;;24.40;96.70;;;;;;5036392;28;20041;-71
2023/06/27 05:41:36;;;;;;;15.32;9.48;;;24.50;96.70;;;;;;5038745;28;20041;-71
2023/06/27 05:44:04;;;;;;;12.65;7.88;;;24.50;96.70;;;;;;5016667;28;20580;-71
2023/06/27 05:46:38;;;;;;;12.55;7.97;;;24.60;96.70;;;;;;5024256;28;20148;-71
2023/06/27 05:49:08;;;;;;;12.95;8.38;;;24.50;96.70;;;;;;5034808;28;20100;-70
2023/06/27 05:51:36;;;;;;;12.45;7.43;;;24.40;96.70;;;;;;5015887;28;20049;-71
2023/06/27 05:54:05;;;;;;;11.55;8.20;;;24.50;96.70;;;;;;5036367;28;20091;-71
2023/06/27 05:56:33;;;;;;;13.60;8.77;;;24.60;96.70;;;;;;5038434;28;20533;-70
2023/06/27 05:59:01;;;;;;;16.17;9.65;;;24.70;96.70;;;;;;5011382;28;20131;-71
2023/06/27 06:01:29;;;;;;;12.93;9.15;;;24.90;96.70;;;;;;5043520;28;20056;-71
2023/06/27 06:03:58;;;;;;;14.52;8.60;;;24.90;96.70;;;;;;5016736;28;20103;-71
2023/06/27 06:06:28;;;;;;;11.75;8.65;;;25.00;96.70;;;;;;5032999;28;20386;-71
2023/06/27 06:08:56;;;;;;;14.38;8.55;;;25.00;96.70;;;;;;5028602;28;20067;-70
2023/06/27 06:11:24;;;;;;;12.45;8.38;;;25.00;96.70;;;;;;5034279;28;20107;-71
2023/06/27 06:13:52;;;;;;;14.00;9.15;;;25.00;96.70;;;;;;5038679;28;20041;-71
2023/06/27 06:16:21;;;;;;;9.77;7.70;;;25.10;96.70;;;;;;5037232;28;20064;-71
2023/06/27 06:18:49;;;;;;;12.52;7.72;;;25.20;96.70;;;;;;5002183;28;20048;-70
2023/06/27 06:21:17;;;;;;;8.45;6.35;;;25.00;96.70;;;;;;5008135;28;20056;-71
2023/06/27 06:23:47;;;;;;;9.80;6.63;;;25.10;96.70;;;;;;5032773;28;20420;-71
2023/06/27 06:26:15;;;;;;;8.65;6.85;;;25.20;96.70;;;;;;5015526;28;20049;-71
2023/06/27 06:28:44;;;;;;;11.05;8.00;;;25.00;96.70;;;;;;5018695;28;20045;-71
2023/06/27 06:31:24;;;;;;;12.55;7.45;;;25.10;96.70;;;;;;5039099;28;20061;-71
2023/06/27 06:33:53;;;;;;;13.27;8.38;;;25.00;96.70;;;;;;5037930;28;20041;-72
2023/06/27 06:36:21;;;;;;;15.25;9.18;;;25.10;96.70;;;;;;5037892;28;20033;-73
2023/06/27 06:38:51;;;;;;;11.85;8.27;;;25.10;96.70;;;;;;5047811;28;20043;-72
2023/06/27 06:41:19;;;;;;;11.50;8.25;;;25.20;96.70;;;;;;5051248;28;20082;-72
2023/06/27 06:43:47;;;;;;;11.75;9.50;;;25.30;96.70;;;;;;5060599;28;20948;-71
2023/06/27 06:46:46;;;;;;;14.27;9.25;;;25.30;96.70;;;;;;5055334;28;20044;-75
2023/06/27 06:49:14;;;;;;;14.18;8.82;;;25.30;96.70;;;;;;5046014;28;20091;-75
2023/06/27 06:51:42;;;;;;;14.70;9.68;;;25.40;96.70;;;;;;5028881;28;20094;-71
2023/06/27 06:54:12;;;;;;;10.43;8.45;;;25.50;96.70;;;;;;5051708;28;20048;-72
2023/06/27 06:56:40;;;;;;;11.95;8.75;;;25.50;96.70;;;;;;5048286;28;20151;-72
2023/06/27 06:59:09;;;;;;;10.90;8.52;;;25.60;96.70;;;;;;5045866;28;20067;-72
2023/06/27 07:01:37;;;;;;;14.80;9.38;;;25.70;96.70;;;;;;5037293;28;20118;-72
2023/06/27 07:04:05;;;;;;;12.90;9.18;;;25.70;96.70;;;;;;5017377;28;20088;-72
2023/06/27 07:06:33;;;;;;;10.13;7.53;;;25.80;96.70;;;;;;5044441;28;20052;-72
2023/06/27 07:09:02;;;;;;;9.88;8.07;;;25.80;96.70;;;;;;5034450;28;20051;-72
2023/06/27 07:11:31;;;;;;;11.25;7.82;;;25.90;96.70;;;;;;5048001;28;20045;-71
2023/06/27 07:13:59;;;;;;;8.75;7.82;;;25.90;96.70;;;;;;5045619;28;20757;-72
2023/06/27 07:16:28;;;;;;;12.65;8.45;;;26.00;96.70;;;;;;5044988;28;20481;-72
2023/06/27 07:18:56;;;;;;;10.88;8.05;;;26.00;96.70;;;;;;5038579;28;20041;-72
2023/06/27 07:21:24;;;;;;;9.40;7.30;;;26.10;96.70;;;;;;5045012;28;20063;-72
2023/06/27 07:23:52;;;;;;;9.70;7.35;;;26.20;96.70;;;;;;5044808;28;20121;-72
2023/06/27 07:26:20;;;;;;;13.50;8.15;;;26.20;96.70;;;;;;5016241;28;20062;-73
2023/06/27 07:28:50;;;;;;;12.20;7.85;;;26.30;96.70;;;;;;5049990;28;20052;-74
2023/06/27 07:31:19;;;;;;;9.60;7.03;;;26.30;96.70;;;;;;5050712;28;20049;-75
2023/06/27 07:33:47;;;;;;;10.18;7.43;;;26.30;96.70;;;;;;5052448;28;20068;-74
2023/06/27 07:36:15;;;;;;;8.90;6.47;;;26.40;96.70;;;;;;5036451;28;20055;-73
2023/06/27 07:38:44;;;;;;;10.15;6.00;;;26.40;96.70;;;;;;5053507;28;20056;-72
2023/06/27 07:41:12;;;;;;;6.65;5.35;;;26.50;96.70;;;;;;5028994;28;20134;-73
2023/06/27 07:44:36;;;;;;;7.68;5.03;;;26.50;96.70;;;;;;5014413;28;20586;-72
2023/06/27 07:47:06;;;;;;;8.40;5.53;;;26.70;96.70;;;;;;5042969;28;20072;-73
2023/06/27 07:49:34;;;;;;;8.88;5.45;;;26.80;96.70;;;;;;5051576;28;20045;-72
2023/06/27 07:52:03;;;;;;;8.07;6.15;;;26.80;96.70;;;;;;5052808;28;20718;-73
2023/06/27 07:54:31;;;;;;;9.02;6.45;;;26.90;96.70;;;;;;5040040;28;20076;-74
2023/06/27 07:57:00;;;;;;;8.95;5.78;;;27.10;96.70;;;;;;5038123;28;20104;-74
2023/06/27 07:59:28;;;;;;;7.72;6.07;;;27.10;96.70;;;;;;5039965;28;21016;-74
2023/06/27 08:01:56;;;;;;;10.50;5.85;;;27.10;96.70;;;;;;5049706;28;20044;-74
2023/06/27 08:04:26;;;;;;;9.85;6.28;;;27.20;96.70;;;;;;5057594;28;20040;-73
2023/06/27 08:06:54;;;;;;;7.90;6.40;;;27.20;96.70;;;;;;5045424;28;20655;-73
2023/06/27 08:09:22;;;;;;;9.02;6.15;;;27.30;96.70;;;;;;5045174;28;20132;-73
2023/06/27 08:11:51;;;;;;;8.38;6.35;;;27.30;96.70;;;;;;5054734;28;20040;-74
2023/06/27 08:14:19;;;;;;;8.93;6.43;;;27.40;96.70;;;;;;5054353;28;20037;-73
2023/06/27 08:16:47;;;;;;;9.73;6.57;;;27.40;96.70;;;;;;5051128;28;20411;-72
2023/06/27 08:20:05;;;;;;;9.77;6.65;;;27.40;96.70;;;;;;5032666;28;20135;-78
2023/06/27 08:22:35;;;;;;;10.93;7.00;;;27.40;96.70;;;;;;5041906;28;20812;-76
2023/06/27 08:25:03;;;;;;;9.88;6.50;;;27.60;96.70;;;;;;5041673;28;20488;-76
2023/06/27 08:27:32;;;;;;;11.73;6.57;;;27.60;96.70;;;;;;5046076;28;20110;-78
2023/06/27 08:30:00;;;;;;;10.25;6.43;;;27.70;96.70;;;;;;5027743;28;20053;-74
2023/06/27 08:32:28;;;;;;;8.27;5.95;;;27.80;96.70;;;;;;5019219;28;20038;-75
2023/06/27 08:34:58;;;;;;;10.20;6.22;;;27.80;96.70;;;;;;5010818;28;20068;-77
2023/06/27 08:37:26;;;;;;;8.50;6.20;;;27.90;96.70;;;;;;5022348;28;20041;-75
2023/06/27 08:39:56;;;;;;;9.95;6.05;;;28.00;96.70;;;;;;4997700;28;20129;-74
2023/06/27 08:42:25;;;;;;;8.90;6.07;;;28.20;96.70;;;;;;5012392;28;21700;-72
2023/06/27 08:44:53;;;;;;;8.75;6.00;;;28.30;96.70;;;;;;5000038;28;20116;-72
2023/06/27 08:47:26;;;;;;;7.38;5.70;;;28.30;96.70;;;;;;5004818;28;20135;-72
2023/06/27 08:50:07;;;;;;;6.68;5.72;;;28.40;96.70;;;;;;5013580;28;20051;-72
2023/06/27 08:52:38;;;;;;;9.13;5.53;;;28.40;96.70;;;;;;5004073;28;21036;-72
2023/06/27 08:55:13;;;;;;;9.65;5.95;;;28.40;96.70;;;;;;4993175;28;20053;-72
2023/06/27 08:57:43;;;;;;;10.40;6.00;;;28.40;96.70;;;;;;5015294;28;20048;-72
2023/06/27 09:00:14;;;;;;;8.82;5.63;;;28.40;96.70;;;;;;5014135;28;20419;-72
2023/06/27 09:02:44;;;;;;;9.75;5.47;;;28.50;96.70;;;;;;5011304;28;20052;-72
2023/06/27 09:05:13;;;;;;;7.25;6.03;;;28.50;96.70;;;;;;5019683;28;20581;-71
2023/06/27 09:07:41;;;;;;;11.48;5.78;;;28.60;96.70;;;;;;5004111;28;20104;-72
2023/06/27 09:10:11;;;;;;;9.32;5.88;;;28.80;96.70;;;;;;5005759;28;20517;-72
2023/06/27 09:12:42;;;;;;;8.90;6.28;;;28.90;96.70;;;;;;5006546;28;20056;-71
2023/06/27 09:15:11;;;;;;;8.18;5.88;;;28.90;96.70;;;;;;5014316;28;20134;-71
2023/06/27 09:17:39;;;;;;;10.30;5.72;;;29.00;96.70;;;;;;5020558;28;20395;-70
2023/06/27 09:20:09;;;;;;;7.00;5.32;;;29.00;96.70;;;;;;5004072;28;20534;-71
2023/06/27 09:22:38;;;;;;;12.65;5.95;;;29.00;96.70;;;;;;5009494;28;20584;-70
2023/06/27 09:25:14;;;;;;;9.35;5.43;;;29.10;96.70;;;;;;5003470;28;20600;-71
2023/06/27 09:27:43;;;;;;;7.63;5.05;;;29.30;96.70;;;;;;4996930;28;20112;-69
2023/06/27 09:30:13;;;;;;;6.38;5.22;;;29.40;96.70;;;;;;5018132;28;20446;-68
2023/06/27 09:32:55;;;;;;;7.00;5.20;;;29.50;96.70;;;;;;5044279;28;20119;-70
2023/06/27 09:35:24;;;;;;;6.97;5.90;;;29.40;96.70;;;;;;5042862;28;20545;-70
2023/06/27 09:38:06;;;;;;;10.50;5.53;;;29.50;96.70;;;;;;5036821;28;20717;-70
2023/06/27 09:40:39;;;;;;;11.20;5.35;;;29.50;96.70;;;;;;5031602;28;20528;-71
2023/06/27 09:43:07;;;;;;;8.32;5.55;;;29.60;96.70;;;;;;5053477;28;20040;-71
2023/06/27 09:45:36;;;;;;;9.20;6.00;;;29.60;96.70;;;;;;5022659;28;20053;-71
2023/06/27 09:48:10;;;;;;;8.68;5.68;;;29.70;96.70;;;;;;5036978;28;20041;-71
2023/06/27 09:50:39;;;;;;;8.00;5.35;;;29.80;96.70;;;;;;5046893;28;20478;-71
2023/06/27 09:53:09;;;;;;;7.75;5.18;;;29.80;96.70;;;;;;5025910;28;20076;-71
2023/06/27 09:55:45;;;;;;;7.93;5.10;;;29.70;96.70;;;;;;5047299;28;20095;-71
2023/06/27 09:58:13;;;;;;;7.38;5.13;;;29.80;96.70;;;;;;5059960;28;20048;-71
2023/06/27 10:00:41;;;;;;;8.70;5.10;;;29.90;96.70;;;;;;5060250;28;20403;-71
2023/06/27 10:03:10;;;;;;;7.10;5.30;;;29.90;96.70;;;;;;5027959;28;20056;-71
2023/06/27 10:05:38;;;;;;;8.05;4.93;;;30.10;96.70;;;;;;5054727;28;20037;-71
2023/06/27 10:08:21;;;;;;;8.57;5.35;;;30.10;96.70;;;;;;5059744;28;20049;-71
2023/06/27 10:10:51;;;;;;;7.45;5.40;;;30.20;96.70;;;;;;5059011;28;21201;-71
2023/06/27 10:13:19;;;;;;;9.52;5.07;;;30.40;96.70;;;;;;5055929;28;20051;-71
2023/06/27 10:15:47;;;;;;;11.23;6.07;;;30.40;96.70;;;;;;5055998;28;20041;-71
2023/06/27 10:18:16;;;;;;;8.82;5.47;;;30.50;96.70;;;;;;5042597;28;20041;-71
2023/06/27 10:20:44;;;;;;;7.13;5.80;;;30.60;96.70;;;;;;5034029;28;20136;-71
2023/06/27 10:23:12;;;;;;;8.75;5.50;;;30.60;96.70;;;;;;5054018;28;20043;-71
2023/06/27 10:25:40;;;;;;;6.85;5.68;;;30.80;96.70;;;;;;5025376;28;20053;-71
2023/06/27 10:28:14;;;;;;;7.60;5.20;;;30.90;96.70;;;;;;5044312;28;20506;-71
2023/06/27 10:30:46;;;;;;;8.88;5.53;;;31.00;96.70;;;;;;5057034;28;20545;-71
2023/06/27 10:33:22;;;;;;;9.50;5.88;;;31.20;96.70;;;;;;5050386;28;20048;-71
2023/06/27 10:35:50;;;;;;;;;;;31.10;96.70;;;;;;5060779;28;20044;-71
2023/06/27 10:38:19;;;;;;;10.20;6.18;;;31.30;96.70;;;;;;5051997;28;20027;-71
2023/06/27 10:41:33;;;;;;;9.10;5.38;;;31.30;96.70;;;;;;5058922;28;20045;-71
2023/06/27 10:44:10;;;;;;;9.30;5.47;;;31.40;96.70;;;;;;5033460;28;20403;-71
2023/06/27 10:46:38;;;;;;;6.85;5.00;;;31.40;96.70;;;;;;5038436;28;20520;-71
2023/06/27 10:49:09;;;;;;;8.30;5.13;;;31.50;96.70;;;;;;5058111;28;20389;-71
2023/06/27 10:51:43;;;;;;;8.18;4.70;;;31.60;96.70;;;;;;5060594;28;20047;-71
2023/06/27 10:54:14;;;;;;;7.03;4.78;;;31.70;96.70;;;;;;5060532;28;20044;-71
2023/06/27 10:56:43;;;;;;;6.95;4.90;;;31.80;96.70;;;;;;5062373;28;20066;-71
2023/06/27 10:59:18;;;;;;;5.68;4.55;;;31.70;96.70;;;;;;5062736;28;20062;-71
2023/06/27 11:01:51;;;;;;;5.07;4.57;;;31.80;96.70;;;;;;5056703;28;20729;-71
2023/06/27 11:04:21;;;;;;;6.45;4.30;;;31.90;96.70;;;;;;5061363;28;20557;-71
2023/06/27 11:06:56;;;;;;;6.28;4.55;;;32.20;96.70;;;;;;5049901;28;20048;-71
2023/06/27 11:09:25;;;;;;;7.93;4.85;;;32.30;96.70;;;;;;5024502;28;20139;-71
2023/06/27 11:11:54;;;;;;;6.53;5.07;;;32.40;96.70;;;;;;5042765;28;20084;-71
2023/06/27 11:14:40;;;;;;;6.22;4.70;;;32.50;96.70;;;;;;5042937;28;20128;-71
2023/06/27 11:17:08;;;;;;;5.68;4.57;;;32.50;96.70;;;;;;5051702;28;20486;-71
2023/06/27 11:19:38;;;;;;;5.25;4.75;;;32.50;96.70;;;;;;5024441;28;20041;-71
2023/06/27 11:22:06;;;;;;;6.72;4.88;;;32.50;96.70;;;;;;5042839;28;20040;-71
2023/06/27 11:24:35;;;;;;;7.40;4.88;;;32.50;96.70;;;;;;5042030;28;20048;-71
2023/06/27 11:27:06;;;;;;;6.65;4.72;;;32.60;96.70;;;;;;5053211;28;20049;-71
2023/06/27 11:29:37;;;;;;;5.25;4.22;;;32.70;96.70;;;;;;5061675;28;20485;-71
2023/06/27 11:32:09;;;;;;;5.90;4.68;;;32.70;96.70;;;;;;5060438;28;20131;-71
2023/06/27 11:34:41;;;;;;;4.78;4.32;;;32.80;96.70;;;;;;5042735;28;20044;-71
2023/06/27 11:37:11;;;;;;;4.80;4.00;;;32.90;96.70;;;;;;5034418;28;20072;-71
2023/06/27 11:39:50;;;;;;;5.75;3.80;;;33.00;96.70;;;;;;5058845;28;20049;-71
2023/06/27 11:42:30;;;;;;;6.97;4.63;;;33.00;96.70;;;;;;5042586;28;20424;-71
2023/06/27 11:45:00;;;;;;;5.53;3.53;;;33.00;96.70;;;;;;5042619;28;20106;-70
2023/06/27 11:47:28;;;;;;;4.07;3.40;;;33.20;96.70;;;;;;5033886;28;20049;-71
2023/06/27 11:50:05;;;;;;;4.20;3.80;;;33.40;96.70;;;;;;5024778;28;20052;-71
2023/06/27 11:52:35;;;;;;;4.35;3.65;;;33.50;96.70;;;;;;5024802;28;20057;-71
2023/06/27 11:55:05;;;;;;;5.97;3.67;;;33.40;96.70;;;;;;5042513;28;20041;-71
2023/06/27 11:57:46;;;;;;;4.55;4.13;;;33.40;96.70;;;;;;5061535;28;20125;-71
2023/06/27 12:00:19;;;;;;;4.65;3.97;;;33.40;96.70;;;;;;5058037;28;20071;-71
2023/06/27 12:02:52;;;;;;;7.10;3.65;;;33.50;96.70;;;;;;5060910;28;20048;-71
2023/06/27 12:05:23;;;;;;;7.55;4.25;;;33.60;96.70;;;;;;5052404;28;20574;-70
2023/06/27 12:08:01;;;;;;;4.65;3.63;;;33.70;96.70;;;;;;5036625;28;20045;-71
2023/06/27 12:10:31;;;;;;;3.70;3.40;;;33.60;96.70;;;;;;5033647;28;20048;-71
2023/06/27 12:13:01;;;;;;;4.93;3.72;;;33.70;96.70;;;;;;5028431;28;20041;-71
2023/06/27 12:19:17;;;;;;;4.68;3.47;;;33.70;96.70;;;;;;5043042;28;20392;-71
2023/06/27 12:21:46;;;;;;;4.80;3.47;;;33.80;96.70;;;;;;5047355;28;20028;-71
2023/06/27 12:24:14;;;;;;;4.43;4.03;;;34.00;96.70;;;;;;5028213;28;20045;-71
2023/06/27 12:26:44;;;;;;;4.43;3.63;;;34.00;96.70;;;;;;5042875;28;20110;-71
2023/06/27 12:29:12;;;;;;;5.05;4.55;;;33.90;96.70;;;;;;5045098;28;20899;-71
2023/06/27 12:31:41;;;;;;;5.32;4.05;;;33.90;96.70;;;;;;5047729;28;20130;-71
2023/06/27 12:34:10;;;;;;;5.47;4.40;;;33.90;96.70;;;;;;5046081;28;20048;-71
2023/06/27 12:36:39;;;;;;;4.35;3.95;;;34.00;96.70;;;;;;5032941;28;20120;-71
2023/06/27 12:39:07;;;;;;;4.38;3.97;;;34.10;96.70;;;;;;5042271;28;20075;-71
2023/06/27 12:41:35;;;;;;;5.43;4.20;;;34.10;96.70;;;;;;5044905;28;20494;-71
2023/06/27 12:44:06;;;;;;;5.63;4.03;;;34.20;96.70;;;;;;5045580;28;20039;-71
2023/06/27 12:46:35;;;;;;;6.57;4.30;;;34.30;96.70;;;;;;5027669;28;20045;-71
2023/06/27 12:49:03;;;;;;;4.10;3.60;;;34.30;96.70;;;;;;5008149;28;20053;-71
2023/06/27 12:51:31;;;;;;;6.00;4.20;;;34.30;96.70;;;;;;5060565;28;20032;-71
2023/06/27 12:54:01;;;;;;;4.75;4.22;;;34.30;96.70;;;;;;5046396;28;20055;-71
2023/06/27 12:56:29;;;;;;;4.35;3.70;;;34.40;96.70;;;;;;5053416;28;20068;-71
2023/06/27 12:58:57;;;;;;;6.65;3.58;;;34.40;96.70;;;;;;5045235;28;20115;-71
2023/06/27 13:01:27;;;;;;;5.55;4.20;;;34.60;96.70;;;;;;5045289;28;20657;-71
2023/06/27 13:03:55;;;;;;;5.30;4.40;;;34.80;96.70;;;;;;5044944;28;20041;-71
2023/06/27 13:06:23;;;;;;;5.40;4.40;;;34.80;96.70;;;;;;5035106;28;20044;-71
2023/06/27 13:08:51;;;;;;;6.00;4.40;;;34.90;96.70;;;;;;5044002;28;20045;-71
2023/06/27 13:11:21;;;;;;;7.45;4.63;;;35.10;96.70;;;;;;5052768;28;20812;-71
2023/06/27 13:13:49;;;;;;;5.78;4.50;;;35.10;96.70;;;;;;5029659;28;20041;-71
2023/06/27 13:16:17;;;;;;;4.55;4.15;;;35.20;96.70;;;;;;5049980;28;20099;-71
2023/06/27 13:18:45;;;;;;;7.50;4.68;;;35.30;96.70;;;;;;5034493;28;20148;-71
2023/06/27 13:21:14;;;;;;;5.55;4.32;;;35.60;96.70;;;;;;5051950;28;20131;-71
2023/06/27 13:23:42;;;;;;;7.22;4.15;;;35.80;96.70;;;;;;5044040;28;20132;-71
2023/06/27 13:26:10;;;;;;;5.53;5.00;;;35.70;96.70;;;;;;5026445;28;20049;-71
2023/06/27 13:28:55;;;;;;;6.63;4.50;;;35.60;96.70;;;;;;5026656;28;20461;-71
2023/06/27 13:31:23;;;;;;;6.53;4.75;;;35.80;96.70;;;;;;5052047;28;20517;-71
2023/06/27 13:33:52;;;;;;;6.00;4.57;;;35.80;96.70;;;;;;5061977;28;20639;-71
2023/06/27 13:36:20;;;;;;;7.03;5.63;;;35.80;96.70;;;;;;5046914;28;20555;-71
2023/06/27 13:38:48;;;;;;;5.60;5.13;;;35.80;96.70;;;;;;5044886;28;20417;-71
2023/06/27 13:41:16;;;;;;;8.27;5.45;;;35.90;96.70;;;;;;5034310;28;20547;-71
2023/06/27 13:43:45;;;;;;;7.10;5.43;;;35.90;96.70;;;;;;5047602;28;20150;-71
2023/06/27 13:46:14;;;;;;;10.35;5.32;;;35.90;96.70;;;;;;5034364;28;20045;-71
2023/06/27 13:48:42;;;;;;;6.57;5.20;;;36.00;96.70;;;;;;5041843;28;20435;-71
2023/06/27 13:51:10;;;;;;;7.88;5.80;;;35.90;96.70;;;;;;5044634;28;20072;-71
2023/06/27 13:53:38;;;;;;;6.30;5.50;;;35.80;96.70;;;;;;5048204;28;20071;-71
2023/06/27 13:56:06;;;;;;;8.95;5.45;;;35.60;96.70;;;;;;5056159;28;20098;-71
2023/06/27 13:58:35;;;;;;;7.10;5.40;;;35.60;96.70;;;;;;5051442;28;20041;-71
2023/06/27 14:01:04;;;;;;;7.45;4.93;;;35.80;96.70;;;;;;5053240;28;20045;-71
2023/06/27 14:03:33;;;;;;;6.03;5.03;;;35.80;96.70;;;;;;5045067;28;20049;-71
2023/06/27 14:06:02;;;;;;;7.78;5.20;;;35.70;96.70;;;;;;5022466;28;20052;-71
2023/06/27 14:08:30;;;;;;;6.70;5.53;;;35.80;96.70;;;;;;5043198;28;20052;-71
2023/06/27 14:10:58;;;;;;;5.60;5.05;;;35.90;96.70;;;;;;5026097;28;20037;-71
2023/06/27 14:13:26;;;;;;;6.82;5.65;;;36.00;96.70;;;;;;5044951;28;20056;-70
2023/06/27 14:15:54;;;;;;;12.18;6.07;;;36.10;96.70;;;;;;5050645;28;20040;-71
2023/06/27 14:18:24;;;;;;;11.07;5.68;;;36.20;96.70;;;;;;5027085;28;21412;-71
2023/06/27 14:20:52;;;;;;;6.05;5.45;;;36.10;96.70;;;;;;5033894;28;20041;-71
2023/06/27 14:23:22;;;;;;;8.38;5.57;;;36.50;96.70;;;;;;5055000;28;20559;-71
2023/06/27 14:25:50;;;;;;;6.53;5.18;;;36.70;96.70;;;;;;5008860;28;20634;-71
2023/06/27 14:28:18;;;;;;;8.90;4.80;;;36.70;96.70;;;;;;5051197;28;20070;-71
2023/06/27 14:30:46;;;;;;;6.47;5.28;;;36.70;96.70;;;;;;5052821;28;20053;-71
2023/06/27 14:33:20;;;;;;;6.90;5.20;;;36.90;96.70;;;;;;5062276;28;20048;-71
2023/06/27 14:35:52;;;;;;;5.53;4.70;;;36.70;96.70;;;;;;5060882;28;20048;-71
2023/06/27 14:38:21;;;;;;;8.43;5.22;;;36.70;96.70;;;;;;5044656;28;20141;-71
2023/06/27 14:40:49;;;;;;;5.72;4.63;;;36.80;96.70;;;;;;5033252;28;20049;-71
2023/06/27 14:43:20;;;;;;;8.35;5.30;;;36.90;96.70;;;;;;5045234;28;20512;-71
2023/06/27 14:45:48;;;;;;;6.65;4.30;;;37.30;96.70;;;;;;5026934;28;20084;-71
2023/06/27 14:48:17;;;;;;;5.57;4.68;;;37.10;96.70;;;;;;5037863;28;20049;-71
2023/06/27 14:50:45;;;;;;;5.93;4.43;;;37.30;96.70;;;;;;5049243;28;20052;-71
2023/06/27 14:53:14;;;;;;;8.18;4.25;;;37.70;96.70;;;;;;5059108;28;20516;-71
2023/06/27 14:55:42;;;;;;;5.35;4.55;;;37.60;96.70;;;;;;5043828;28;20059;-71
2023/06/27 14:58:10;;;;;;;5.38;4.53;;;37.50;96.70;;;;;;5046191;28;20754;-71
2023/06/27 15:00:38;;;;;;;5.13;4.70;;;37.60;96.70;;;;;;5029451;28;20495;-71
2023/06/27 15:03:07;;;;;;;7.35;4.47;;;37.50;96.70;;;;;;5042908;28;20394;-71
2023/06/27 15:05:38;;;;;;;4.95;4.25;;;37.80;96.70;;;;;;5040553;28;20090;-71
2023/06/27 15:08:06;;;;;;;5.15;4.30;;;37.90;96.70;;;;;;5035423;28;20043;-71
2023/06/27 15:10:38;;;;;;;5.30;3.80;;;37.50;96.70;;;;;;5040753;28;20045;-71
2023/06/27 15:13:07;;;;;;;7.82;4.65;;;37.50;96.70;;;;;;5051483;28;20499;-71
2023/06/27 15:15:35;;;;;;;6.18;4.10;;;37.70;96.70;;;;;;5043299;28;20045;-71
2023/06/27 15:18:03;;;;;;;6.72;4.28;;;37.80;96.70;;;;;;5042652;28;20045;-71
2023/06/27 15:20:32;;;;;;;5.35;4.50;;;37.80;96.70;;;;;;5028467;28;20131;-71
2023/06/27 15:23:00;;;;;;;5.68;3.90;;;37.80;96.70;;;;;;5027503;28;21326;-71